Time;durP1;ratioP1;P1;durP2;ratioP2;P2;SDS_P1;SDS_P2;PMS_P1;PMS_P2;Temp;Humidity;BMP_temperature;BMP_pressure;BME280_temperature;BME280_humidity;BME280_pressure;Samples;Min_cycle;Max_cycle;Signal;HPM_P1;HPM_P2
2021/11/23 00:01:21;;;;;;;5.10;3.20;;;;;;;;;;5069622;28;20170;-69
2021/11/23 00:03:47;;;;;;;7.03;3.80;;;;;;;;;;5085901;28;20107;-68
2021/11/23 00:06:13;;;;;;;7.03;4.10;;;;;;;;;;5088139;28;20021;-69
2021/11/23 00:08:38;;;;;;;6.70;3.73;;;;;;;;;;5071146;28;20119;-69
2021/11/23 00:11:03;;;;;;;6.27;4.90;;;;;;;;;;5083871;28;20018;-68
2021/11/23 00:13:29;;;;;;;4.60;3.50;;;;;;;;;;5091695;28;20495;-68
2021/11/23 00:15:54;;;;;;;6.90;3.97;;;;;;;;;;5090916;28;20399;-69
2021/11/23 00:18:19;;;;;;;5.73;4.10;;;;;;;;;;5092480;28;20020;-69
2021/11/23 00:20:45;;;;;;;6.30;3.90;;;;;;;;;;5090101;28;20052;-69
2021/11/23 00:23:11;;;;;;;7.27;4.67;;;;;;;;;;5098301;28;20469;-69
2021/11/23 00:25:37;;;;;;;7.00;4.67;;;;;;;;;;5076698;28;20046;-69
2021/11/23 00:28:02;;;;;;;7.73;4.47;;;;;;;;;;5080873;28;20469;-69
2021/11/23 00:30:29;;;;;;;7.60;4.83;;;;;;;;;;5083151;28;20024;-69
2021/11/23 00:32:55;;;;;;;6.47;4.40;;;;;;;;;;5080893;28;20044;-69
2021/11/23 00:35:21;;;;;;;5.83;4.67;;;;;;;;;;5077166;28;20034;-68
2021/11/23 00:37:47;;;;;;;5.97;4.63;;;;;;;;;;5091048;28;20031;-69
2021/11/23 00:40:14;;;;;;;7.10;4.33;;;;;;;;;;5086908;28;20020;-68
2021/11/23 00:42:39;;;;;;;6.77;4.87;;;;;;;;;;5078385;28;20487;-68
2021/11/23 00:45:05;;;;;;;8.77;5.97;;;;;;;;;;5091057;28;20024;-68
2021/11/23 00:47:31;;;;;;;8.80;5.30;;;;;;;;;;5059423;28;20040;-68
2021/11/23 00:49:56;;;;;;;6.23;4.93;;;;;;;;;;5092369;28;20020;-69
2021/11/23 00:52:21;;;;;;;7.77;5.60;;;;;;;;;;5071680;28;20540;-69
2021/11/23 00:54:46;;;;;;;7.53;5.67;;;;;;;;;;5071396;28;20024;-69
2021/11/23 00:57:12;;;;;;;7.03;6.13;;;;;;;;;;5085228;28;20020;-69
2021/11/23 00:59:38;;;;;;;7.37;6.33;;;;;;;;;;5091430;28;20035;-69
2021/11/23 01:02:04;;;;;;;8.80;6.00;;;;;;;;;;5082008;28;20028;-69
2021/11/23 01:04:29;;;;;;;10.43;6.73;;;;;;;;;;5088101;28;20182;-69
2021/11/23 01:06:55;;;;;;;7.43;5.80;;;;;;;;;;5090956;28;20031;-69
2021/11/23 01:09:20;;;;;;;8.83;6.53;;;;;;;;;;5088498;28;20040;-69
2021/11/23 01:11:45;;;;;;;7.77;6.07;;;;;;;;;;5089357;28;20035;-69
2021/11/23 01:14:10;;;;;;;7.23;5.20;;;;;;;;;;5090537;28;20028;-69
2021/11/23 01:16:36;;;;;;;6.10;5.50;;;;;;;;;;5085822;28;20024;-69
2021/11/23 01:19:02;;;;;;;8.77;5.83;;;;;;;;;;5071578;28;20036;-69
2021/11/23 01:21:27;;;;;;;6.77;5.37;;;;;;;;;;5071686;28;20562;-69
2021/11/23 01:23:53;;;;;;;7.60;6.37;;;;;;;;;;5069438;28;20393;-70
2021/11/23 01:26:19;;;;;;;9.37;6.17;;;;;;;;;;5079445;28;20060;-72
2021/11/23 01:28:44;;;;;;;9.30;6.67;;;;;;;;;;5083801;28;20055;-70
2021/11/23 01:31:10;;;;;;;9.60;6.87;;;;;;;;;;5086191;28;20044;-70
2021/11/23 01:33:35;;;;;;;8.20;6.00;;;;;;;;;;5094043;28;20032;-70
2021/11/23 01:36:02;;;;;;;7.77;5.53;;;;;;;;;;5093008;28;20032;-70
2021/11/23 01:38:27;;;;;;;7.33;5.50;;;;;;;;;;5093561;28;20046;-70
2021/11/23 01:40:52;;;;;;;6.77;5.60;;;;;;;;;;5082135;28;20744;-70
2021/11/23 01:43:17;;;;;;;6.60;5.47;;;;;;;;;;5095965;28;20135;-70
2021/11/23 01:45:43;;;;;;;5.97;5.23;;;;;;;;;;5090149;28;20336;-69
2021/11/23 01:48:09;;;;;;;7.50;5.50;;;;;;;;;;5094372;28;20466;-69
2021/11/23 01:50:35;;;;;;;7.67;4.53;;;;;;;;;;5093718;28;20472;-70
2021/11/23 01:53:04;;;;;;;6.83;4.93;;;;;;;;;;5071099;28;20024;-70
2021/11/23 01:55:29;;;;;;;9.60;5.67;;;;;;;;;;5083671;28;20016;-70
2021/11/23 01:57:54;;;;;;;6.13;5.30;;;;;;;;;;5068065;28;20374;-70
2021/11/23 02:00:20;;;;;;;6.33;5.63;;;;;;;;;;5066003;28;20032;-70
2021/11/23 02:02:46;;;;;;;6.40;4.80;;;;;;;;;;5081319;28;20051;-70
2021/11/23 02:05:11;;;;;;;6.33;4.87;;;;;;;;;;5074814;28;20439;-70
2021/11/23 02:07:37;;;;;;;6.70;5.50;;;;;;;;;;5091055;28;20118;-70
2021/11/23 02:10:04;;;;;;;6.80;5.20;;;;;;;;;;5092509;28;20468;-70
2021/11/23 02:12:30;;;;;;;7.33;5.43;;;;;;;;;;5093904;28;20067;-70
2021/11/23 02:14:55;;;;;;;10.37;6.67;;;;;;;;;;5093127;28;20495;-70
2021/11/23 02:17:20;;;;;;;9.77;5.97;;;;;;;;;;5094618;28;20526;-70
2021/11/23 02:19:50;;;;;;;6.80;5.77;;;;;;;;;;5094141;28;20027;-70
2021/11/23 02:22:15;;;;;;;8.57;6.43;;;;;;;;;;5076576;28;20023;-70
2021/11/23 02:24:40;;;;;;;9.00;6.10;;;;;;;;;;5074389;28;20051;-70
2021/11/23 02:27:05;;;;;;;9.53;6.50;;;;;;;;;;5091816;28;20030;-70
2021/11/23 02:29:31;;;;;;;7.80;6.57;;;;;;;;;;5094940;28;20020;-70
2021/11/23 02:31:56;;;;;;;11.00;6.93;;;;;;;;;;5092051;28;20468;-70
2021/11/23 02:34:21;;;;;;;10.07;7.63;;;;;;;;;;5092759;28;20078;-70
2021/11/23 02:36:47;;;;;;;11.00;8.20;;;;;;;;;;5091446;28;20461;-70
2021/11/23 02:39:12;;;;;;;15.07;9.37;;;;;;;;;;5091371;28;20391;-70
2021/11/23 02:41:38;;;;;;;11.93;8.10;;;;;;;;;;5081193;28;20388;-70
2021/11/23 02:44:03;;;;;;;17.33;9.53;;;;;;;;;;5091646;28;20028;-70
2021/11/23 02:46:29;;;;;;;19.77;10.53;;;;;;;;;;5084108;28;20044;-70
2021/11/23 02:48:54;;;;;;;16.13;9.60;;;;;;;;;;5090460;28;20448;-70
2021/11/23 02:51:19;;;;;;;17.93;10.37;;;;;;;;;;5094605;28;20028;-70
2021/11/23 02:53:46;;;;;;;16.80;10.17;;;;;;;;;;5076980;28;20029;-70
2021/11/23 02:56:13;;;;;;;14.57;9.03;;;;;;;;;;5082384;28;20019;-70
2021/11/23 02:58:39;;;;;;;14.47;9.73;;;;;;;;;;5083128;28;20096;-69
2021/11/23 03:01:05;;;;;;;21.67;9.80;;;;;;;;;;5088946;28;20071;-69
2021/11/23 03:03:31;;;;;;;12.13;9.60;;;;;;;;;;5088772;28;20365;-70
2021/11/23 03:05:56;;;;;;;13.63;9.67;;;;;;;;;;5075296;28;20027;-69
2021/11/23 03:08:22;;;;;;;15.10;9.83;;;;;;;;;;5092448;28;20023;-69
2021/11/23 03:10:47;;;;;;;15.33;10.10;;;;;;;;;;5089925;28;20059;-69
2021/11/23 03:13:13;;;;;;;12.73;8.77;;;;;;;;;;5094251;28;20063;-69
2021/11/23 03:15:38;;;;;;;15.63;9.70;;;;;;;;;;5094012;28;20493;-69
2021/11/23 03:18:03;;;;;;;12.00;8.43;;;;;;;;;;5071899;28;20115;-69
2021/11/23 03:20:29;;;;;;;11.80;8.93;;;;;;;;;;5078334;28;20017;-69
2021/11/23 03:22:55;;;;;;;13.27;8.67;;;;;;;;;;5079090;28;20236;-69
2021/11/23 03:25:21;;;;;;;10.57;8.37;;;;;;;;;;5080851;28;20381;-69
2021/11/23 03:27:46;;;;;;;12.27;8.00;;;;;;;;;;5082819;28;20023;-69
2021/11/23 03:30:12;;;;;;;11.40;8.03;;;;;;;;;;5075124;28;20037;-69
2021/11/23 03:32:38;;;;;;;12.97;8.43;;;;;;;;;;5080674;28;20044;-69
2021/11/23 03:35:04;;;;;;;13.57;9.20;;;;;;;;;;5077785;28;20499;-69
2021/11/23 03:37:29;;;;;;;11.77;8.80;;;;;;;;;;5072868;28;20426;-69
2021/11/23 03:39:55;;;;;;;11.63;9.03;;;;;;;;;;5075836;28;20035;-69
2021/11/23 03:42:21;;;;;;;12.33;9.00;;;;;;;;;;5086233;28;20016;-69
2021/11/23 03:44:46;;;;;;;11.70;9.60;;;;;;;;;;5087808;28;20079;-69
2021/11/23 03:47:13;;;;;;;10.30;8.43;;;;;;;;;;5074583;28;20056;-69
2021/11/23 03:49:42;;;;;;;11.57;9.10;;;;;;;;;;5093202;28;20043;-69
2021/11/23 03:52:07;;;;;;;10.23;8.07;;;;;;;;;;5091256;28;20103;-69
2021/11/23 03:54:33;;;;;;;14.30;9.93;;;;;;;;;;5079947;28;20248;-69
2021/11/23 03:56:58;;;;;;;10.70;9.07;;;;;;;;;;5087589;28;20269;-70
2021/11/23 03:59:23;;;;;;;10.37;8.37;;;;;;;;;;5092341;28;20110;-70
2021/11/23 04:01:48;;;;;;;12.70;8.97;;;;;;;;;;5091974;28;20043;-70
2021/11/23 04:04:14;;;;;;;9.77;8.70;;;;;;;;;;5084966;28;20457;-70
2021/11/23 04:06:39;;;;;;;10.77;9.10;;;;;;;;;;5091726;28;20052;-70
2021/11/23 04:09:04;;;;;;;12.03;8.87;;;;;;;;;;5092830;28;20028;-70
2021/11/23 04:11:30;;;;;;;12.60;9.77;;;;;;;;;;5077417;28;20519;-69
2021/11/23 04:13:55;;;;;;;12.00;9.17;;;;;;;;;;5084225;28;20098;-70
2021/11/23 04:16:21;;;;;;;12.27;9.63;;;;;;;;;;5091220;28;20047;-70
2021/11/23 04:18:47;;;;;;;12.13;9.03;;;;;;;;;;5092213;28;20527;-70
2021/11/23 04:21:12;;;;;;;11.83;9.57;;;;;;;;;;5092810;28;20055;-71
2021/11/23 04:23:38;;;;;;;12.83;9.43;;;;;;;;;;5077399;28;20028;-69
2021/11/23 04:26:03;;;;;;;10.93;8.37;;;;;;;;;;5078334;28;20082;-71
2021/11/23 04:28:28;;;;;;;9.87;8.77;;;;;;;;;;5075989;28;20404;-70
2021/11/23 04:30:54;;;;;;;12.97;8.77;;;;;;;;;;5072092;28;20027;-70
2021/11/23 04:33:20;;;;;;;11.67;8.13;;;;;;;;;;5074658;28;20044;-69
2021/11/23 04:35:45;;;;;;;11.63;8.93;;;;;;;;;;5079032;28;20046;-69
2021/11/23 04:38:11;;;;;;;10.07;8.60;;;;;;;;;;5090957;28;20189;-69
2021/11/23 04:40:37;;;;;;;9.37;7.50;;;;;;;;;;5086473;28;20016;-69
2021/11/23 04:43:05;;;;;;;11.20;7.90;;;;;;;;;;5070902;28;20020;-69
2021/11/23 04:45:30;;;;;;;9.50;7.30;;;;;;;;;;5079051;28;20039;-70
2021/11/23 04:47:56;;;;;;;9.33;6.90;;;;;;;;;;5089757;28;20472;-69
2021/11/23 04:50:21;;;;;;;8.83;7.07;;;;;;;;;;5081696;28;20468;-69
2021/11/23 04:52:46;;;;;;;8.60;6.83;;;;;;;;;;5069852;28;20022;-69
2021/11/23 04:55:12;;;;;;;8.13;6.60;;;;;;;;;;5072914;28;20020;-70
2021/11/23 04:57:38;;;;;;;7.43;6.30;;;;;;;;;;5078443;28;20435;-69
2021/11/23 05:00:04;;;;;;;8.37;6.23;;;;;;;;;;5091979;28;20030;-70
2021/11/23 05:02:29;;;;;;;9.80;7.00;;;;;;;;;;5080244;28;20024;-70
2021/11/23 05:04:55;;;;;;;8.63;6.60;;;;;;;;;;5078704;28;20012;-70
2021/11/23 05:07:20;;;;;;;6.43;5.43;;;;;;;;;;5087981;28;20055;-70
2021/11/23 05:09:45;;;;;;;7.27;5.67;;;;;;;;;;5089941;28;20020;-69
2021/11/23 05:12:11;;;;;;;6.83;5.40;;;;;;;;;;5070637;28;20024;-69
2021/11/23 05:14:36;;;;;;;7.63;5.97;;;;;;;;;;5072011;28;20434;-70
2021/11/23 05:17:01;;;;;;;7.30;5.50;;;;;;;;;;5081508;28;20032;-70
2021/11/23 05:19:27;;;;;;;6.70;5.57;;;;;;;;;;5087799;28;20063;-70
2021/11/23 05:21:52;;;;;;;7.87;5.70;;;;;;;;;;5108869;28;20411;-70
2021/11/23 05:24:17;;;;;;;10.43;5.77;;;;;;;;;;5076952;28;20399;-70
2021/11/23 05:26:42;;;;;;;6.87;5.13;;;;;;;;;;5087523;28;20091;-70
2021/11/23 05:29:10;;;;;;;7.70;5.70;;;;;;;;;;5084714;28;20025;-70
2021/11/23 05:31:35;;;;;;;7.83;5.53;;;;;;;;;;5086574;28;20504;-70
2021/11/23 05:34:01;;;;;;;8.23;5.23;;;;;;;;;;5070373;28;20020;-70
2021/11/23 05:36:26;;;;;;;9.23;5.03;;;;;;;;;;5069603;28;20486;-70
2021/11/23 05:38:52;;;;;;;7.67;5.63;;;;;;;;;;5086444;28;20099;-70
2021/11/23 05:41:17;;;;;;;6.73;5.10;;;;;;;;;;5076376;28;20517;-70
2021/11/23 05:43:42;;;;;;;7.20;5.17;;;;;;;;;;5071578;28;20070;-70
2021/11/23 05:46:08;;;;;;;7.10;4.60;;;;;;;;;;5077219;28;20020;-70
2021/11/23 05:48:33;;;;;;;7.10;4.90;;;;;;;;;;5082347;28;20050;-70
2021/11/23 05:51:03;;;;;;;7.00;4.97;;;;;;;;;;5073740;28;20066;-70
2021/11/23 05:53:29;;;;;;;6.30;4.57;;;;;;;;;;5073053;28;20043;-70
2021/11/23 05:55:55;;;;;;;5.50;4.40;;;;;;;;;;5079564;28;20020;-70
2021/11/23 05:58:20;;;;;;;6.37;4.63;;;;;;;;;;5106660;28;20066;-70
2021/11/23 06:00:45;;;;;;;5.03;4.00;;;;;;;;;;5088769;28;20074;-70
2021/11/23 06:03:11;;;;;;;6.97;4.60;;;;;;;;;;5073459;28;20096;-70
2021/11/23 06:05:36;;;;;;;6.13;4.53;;;;;;;;;;5073311;28;20043;-70
2021/11/23 06:08:02;;;;;;;7.83;4.67;;;;;;;;;;5070996;28;20385;-70
2021/11/23 06:10:28;;;;;;;6.43;4.33;;;;;;;;;;5066520;28;20056;-70
2021/11/23 06:12:53;;;;;;;5.07;4.17;;;;;;;;;;5089545;28;20056;-70
2021/11/23 06:15:19;;;;;;;7.03;4.77;;;;;;;;;;5088438;28;20113;-70
2021/11/23 06:17:44;;;;;;;5.87;4.27;;;;;;;;;;5078123;28;20218;-70
2021/11/23 06:20:10;;;;;;;6.03;4.27;;;;;;;;;;5074532;28;20020;-70
2021/11/23 06:22:35;;;;;;;7.13;4.77;;;;;;;;;;5089115;28;20837;-69
2021/11/23 06:25:01;;;;;;;4.93;4.00;;;;;;;;;;5073335;28;20016;-69
2021/11/23 06:27:26;;;;;;;6.10;3.90;;;;;;;;;;5074726;28;20031;-70
2021/11/23 06:29:52;;;;;;;5.40;4.17;;;;;;;;;;5074062;28;20028;-69
2021/11/23 06:32:18;;;;;;;6.50;3.97;;;;;;;;;;5086141;28;20064;-69
2021/11/23 06:34:43;;;;;;;6.93;4.47;;;;;;;;;;5093275;28;20039;-69
2021/11/23 06:37:09;;;;;;;6.97;5.47;;;;;;;;;;5093166;28;20043;-68
2021/11/23 06:39:34;;;;;;;5.93;3.73;;;;;;;;;;5092437;28;20376;-69
2021/11/23 06:41:59;;;;;;;5.70;4.47;;;;;;;;;;5086870;28;20106;-69
2021/11/23 06:44:25;;;;;;;6.60;4.33;;;;;;;;;;5073917;28;20021;-69
2021/11/23 06:46:50;;;;;;;5.03;3.30;;;;;;;;;;5072692;28;20027;-69
2021/11/23 06:49:15;;;;;;;6.30;4.40;;;;;;;;;;5075159;28;20091;-69
2021/11/23 06:51:41;;;;;;;5.70;4.10;;;;;;;;;;5082196;28;20035;-69
2021/11/23 06:54:06;;;;;;;4.00;3.70;;;;;;;;;;5074218;28;20446;-70
2021/11/23 06:56:31;;;;;;;6.23;4.07;;;;;;;;;;5083237;28;20024;-69
2021/11/23 06:58:57;;;;;;;4.33;3.90;;;;;;;;;;5084773;28;20382;-70
2021/11/23 07:01:22;;;;;;;5.50;3.97;;;;;;;;;;5088348;28;20430;-69
2021/11/23 07:03:47;;;;;;;7.63;4.53;;;;;;;;;;5085088;28;20059;-69
2021/11/23 07:06:13;;;;;;;7.37;4.47;;;;;;;;;;5086975;28;20032;-69
2021/11/23 07:08:38;;;;;;;6.50;3.90;;;;;;;;;;5090684;28;20022;-69
2021/11/23 07:11:06;;;;;;;6.27;4.30;;;;;;;;;;5082193;28;20024;-69
2021/11/23 07:13:32;;;;;;;6.57;4.63;;;;;;;;;;5096382;28;20023;-69
2021/11/23 07:15:57;;;;;;;6.77;4.10;;;;;;;;;;5092740;28;20039;-71
2021/11/23 07:18:22;;;;;;;6.83;4.33;;;;;;;;;;5093684;28;20457;-68
2021/11/23 07:20:48;;;;;;;6.60;4.13;;;;;;;;;;5094088;28;20050;-69
2021/11/23 07:23:14;;;;;;;4.83;3.60;;;;;;;;;;5082489;28;20473;-69
2021/11/23 07:25:39;;;;;;;5.50;3.60;;;;;;;;;;5080517;28;20031;-69
2021/11/23 07:28:05;;;;;;;7.43;4.20;;;;;;;;;;5070894;28;20032;-69
2021/11/23 07:30:30;;;;;;;5.63;3.77;;;;;;;;;;5073477;28;20029;-69
2021/11/23 07:32:56;;;;;;;4.07;3.23;;;;;;;;;;5074052;28;20519;-70
2021/11/23 07:35:21;;;;;;;4.43;3.00;;;;;;;;;;5092623;28;20528;-70
2021/11/23 07:37:47;;;;;;;5.40;3.20;;;;;;;;;;5093420;28;20460;-70
2021/11/23 07:40:13;;;;;;;5.07;3.67;;;;;;;;;;5086841;28;20031;-70
2021/11/23 07:42:38;;;;;;;4.30;3.27;;;;;;;;;;5073190;28;20021;-70
2021/11/23 07:45:04;;;;;;;5.33;3.23;;;;;;;;;;5087970;28;20480;-69
2021/11/23 07:47:29;;;;;;;5.30;3.67;;;;;;;;;;5093154;28;20232;-69
2021/11/23 07:49:54;;;;;;;6.70;3.87;;;;;;;;;;5093168;28;20061;-69
2021/11/23 07:52:20;;;;;;;4.37;3.17;;;;;;;;;;5092065;28;20024;-69
2021/11/23 07:54:45;;;;;;;4.40;3.10;;;;;;;;;;5085450;28;20388;-69
2021/11/23 07:57:10;;;;;;;4.27;3.33;;;;;;;;;;5085498;28;20020;-69
2021/11/23 07:59:36;;;;;;;5.37;3.77;;;;;;;;;;5072975;28;20070;-70
2021/11/23 08:02:01;;;;;;;5.30;2.97;;;;;;;;;;5071298;28;20060;-70
2021/11/23 08:04:26;;;;;;;4.43;3.13;;;;;;;;;;5074195;28;20028;-70
2021/11/23 08:06:52;;;;;;;3.87;3.17;;;;;;;;;;5074456;28;20028;-69
2021/11/23 08:09:18;;;;;;;3.70;3.30;;;;;;;;;;5091231;28;20024;-70
2021/11/23 08:11:43;;;;;;;3.77;3.17;;;;;;;;;;5075286;28;20026;-70
2021/11/23 08:14:08;;;;;;;3.83;2.70;;;;;;;;;;5072673;28;20104;-70
2021/11/23 08:16:34;;;;;;;3.47;2.73;;;;;;;;;;5086137;28;20028;-70
2021/11/23 08:18:59;;;;;;;3.90;2.57;;;;;;;;;;5074389;28;20380;-70
2021/11/23 08:21:25;;;;;;;3.40;2.20;;;;;;;;;;5092695;28;20020;-70
2021/11/23 08:23:51;;;;;;;2.43;2.03;;;;;;;;;;5078157;28;20024;-70
2021/11/23 08:26:16;;;;;;;2.63;2.17;;;;;;;;;;5075456;28;20412;-70
2021/11/23 08:28:42;;;;;;;4.87;2.60;;;;;;;;;;5090930;28;20040;-70
2021/11/23 08:31:08;;;;;;;4.57;2.93;;;;;;;;;;5092568;28;20425;-70
2021/11/23 08:33:33;;;;;;;3.30;2.07;;;;;;;;;;5071034;28;20017;-70
2021/11/23 08:35:58;;;;;;;2.57;1.50;;;;;;;;;;5072434;28;20008;-70
2021/11/23 08:38:24;;;;;;;4.27;2.17;;;;;;;;;;5063437;28;20097;-70
2021/11/23 08:40:49;;;;;;;2.93;1.13;;;;;;;;;;5083000;28;20115;-70
2021/11/23 08:43:15;;;;;;;2.97;1.30;;;;;;;;;;5091090;28;20053;-70
2021/11/23 08:45:41;;;;;;;2.20;1.30;;;;;;;;;;5092378;28;20043;-70
2021/11/23 08:48:07;;;;;;;3.07;1.43;;;;;;;;;;5090174;28;20024;-70
2021/11/23 08:50:32;;;;;;;3.03;0.90;;;;;;;;;;5092136;28;20077;-70
2021/11/23 08:52:58;;;;;;;1.90;1.00;;;;;;;;;;5086106;28;20876;-69
2021/11/23 08:55:24;;;;;;;3.50;0.90;;;;;;;;;;5076368;28;20032;-70
2021/11/23 08:57:49;;;;;;;3.13;0.90;;;;;;;;;;5083274;28;20029;-70
2021/11/23 09:00:18;;;;;;;1.75;0.98;;;;;;;;;;5091700;28;20031;-70
2021/11/23 09:02:55;;;;;;;4.07;1.10;;;;;;;;;;5077390;28;20030;-70
2021/11/23 09:05:22;;;;;;;3.58;0.95;;;;;;;;;;5070586;28;20536;-68
2021/11/23 09:07:48;;;;;;;2.40;1.00;;;;;;;;;;5076454;28;20080;-69
2021/11/23 09:10:19;;;;;;;2.63;1.08;;;;;;;;;;5082953;28;20338;-69
2021/11/23 09:12:45;;;;;;;2.33;1.05;;;;;;;;;;5070789;28;20047;-70
2021/11/23 09:15:10;;;;;;;1.10;0.90;;;;;;;;;;5072269;28;20411;-69
2021/11/23 09:17:36;;;;;;;2.13;0.70;;;;;;;;;;5091956;28;20028;-70
2021/11/23 09:20:01;;;;;;;3.58;1.02;;;;;;;;;;5090129;28;20024;-70
2021/11/23 09:22:28;;;;;;;2.30;0.95;;;;;;;;;;5087433;28;20024;-70
2021/11/23 09:24:53;;;;;;;2.90;0.77;;;;;;;;;;5069622;28;20066;-70
2021/11/23 09:27:18;;;;;;;3.53;0.90;;;;;;;;;;5071391;28;20066;-69
2021/11/23 09:29:44;;;;;;;2.95;0.98;;;;;;;;;;5073868;28;20042;-69
2021/11/23 09:32:12;;;;;;;4.72;1.20;;;;;;;;;;5082075;28;20048;-69
2021/11/23 09:34:37;;;;;;;1.90;1.13;;;;;;;;;;5070565;28;20069;-69
2021/11/23 09:37:03;;;;;;;1.98;0.80;;;;;;;;;;5071396;28;20091;-69
2021/11/23 09:39:28;;;;;;;2.42;1.00;;;;;;;;;;5069769;28;20029;-69
2021/11/23 09:41:53;;;;;;;2.35;0.77;;;;;;;;;;5081274;28;20111;-69
2021/11/23 09:44:19;;;;;;;2.00;1.15;;;;;;;;;;5091870;28;20643;-70
2021/11/23 09:46:44;;;;;;;3.22;1.10;;;;;;;;;;5091506;28;20021;-68
2021/11/23 09:49:10;;;;;;;4.82;1.00;;;;;;;;;;5090470;28;20035;-69
2021/11/23 09:51:36;;;;;;;1.88;0.95;;;;;;;;;;5075454;28;20036;-69
2021/11/23 09:54:03;;;;;;;2.42;0.98;;;;;;;;;;5089279;28;20474;-69
2021/11/23 09:56:29;;;;;;;2.03;1.10;;;;;;;;;;5095288;28;20099;-69
2021/11/23 09:58:57;;;;;;;2.88;1.15;;;;;;;;;;5094934;28;20119;-70
2021/11/23 10:01:24;;;;;;;3.13;1.23;;;;;;;;;;5093962;28;20046;-69
2021/11/23 10:03:50;;;;;;;2.28;1.20;;;;;;;;;;5093834;28;20128;-69
2021/11/23 10:06:19;;;;;;;2.28;1.17;;;;;;;;;;5094046;28;20056;-70
2021/11/23 10:08:45;;;;;;;1.88;0.70;;;;;;;;;;5093418;28;20028;-70
2021/11/23 10:11:11;;;;;;;3.08;1.13;;;;;;;;;;5080705;28;20040;-69
2021/11/23 10:13:45;;;;;;;3.83;1.30;;;;;;;;;;5085987;28;20165;-70
2021/11/23 10:16:10;;;;;;;1.98;0.85;;;;;;;;;;5093976;28;20545;-70
2021/11/23 10:18:36;;;;;;;3.03;1.02;;;;;;;;;;5093866;28;20016;-70
2021/11/23 10:21:04;;;;;;;1.65;0.85;;;;;;;;;;5094871;28;20020;-70
2021/11/23 10:23:29;;;;;;;3.40;0.88;;;;;;;;;;5085354;28;20031;-70
2021/11/23 10:26:15;;;;;;;6.10;1.20;;;;;;;;;;5073053;28;20024;-71
2021/11/23 10:29:01;;;;;;;2.05;0.70;;;;;;;;;;5074055;28;20175;-70
2021/11/23 10:31:26;;;;;;;;;;;;;;;;;;5091701;28;20048;-70
2021/11/23 10:33:56;;;;;;;4.45;1.40;;;;;;;;;;5091319;28;19923;-70
2021/11/23 10:36:22;;;;;;;3.85;1.38;;;;;;;;;;5074742;28;20016;-70
2021/11/23 10:38:47;;;;;;;3.95;1.15;;;;;;;;;;5074739;28;20024;-69
2021/11/23 10:41:13;;;;;;;2.30;1.10;;;;;;;;;;5085493;28;20419;-70
2021/11/23 10:43:40;;;;;;;4.53;1.15;;;;;;;;;;5094664;28;20468;-69
2021/11/23 10:46:31;;;;;;;2.55;1.02;;;;;;;;;;5094399;28;20587;-69
2021/11/23 10:48:58;;;;;;;3.80;1.50;;;;;;;;;;5092225;28;20020;-70
2021/11/23 10:51:24;;;;;;;2.90;1.48;;;;;;;;;;5089641;28;20476;-69
2021/11/23 10:53:50;;;;;;;2.45;1.23;;;;;;;;;;5073770;28;20025;-70
2021/11/23 10:56:17;;;;;;;2.33;1.13;;;;;;;;;;5073545;28;20085;-70
2021/11/23 10:58:43;;;;;;;3.80;1.30;;;;;;;;;;5072457;28;20043;-70
2021/11/23 11:01:11;;;;;;;3.35;1.27;;;;;;;;;;5077055;28;20055;-69
2021/11/23 11:03:38;;;;;;;2.72;1.10;;;;;;;;;;5076830;28;20021;-69
2021/11/23 11:06:04;;;;;;;2.88;0.98;;;;;;;;;;5083597;28;20236;-69
2021/11/23 11:08:33;;;;;;;3.92;1.08;;;;;;;;;;5087592;28;20056;-69
2021/11/23 11:10:59;;;;;;;2.15;1.17;;;;;;;;;;5074674;28;20015;-69
2021/11/23 11:13:24;;;;;;;2.90;1.40;;;;;;;;;;5090943;28;20055;-70
2021/11/23 11:15:51;;;;;;;2.78;1.00;;;;;;;;;;5093853;28;20023;-70
2021/11/23 11:18:17;;;;;;;2.72;1.40;;;;;;;;;;5093715;28;20016;-70
2021/11/23 11:20:42;;;;;;;2.55;1.52;;;;;;;;;;5075843;28;20028;-71
2021/11/23 11:23:09;;;;;;;2.80;1.60;;;;;;;;;;5082781;28;20031;-69
2021/11/23 11:25:58;;;;;;;2.10;1.20;;;;;;;;;;5081726;28;20109;-70
2021/11/23 11:28:38;;;;;;;3.90;1.25;;;;;;;;;;5077351;28;20033;-69
2021/11/23 11:31:06;;;;;;;4.43;1.10;;;;;;;;;;5093509;28;20046;-70
2021/11/23 11:33:32;;;;;;;6.05;1.70;;;;;;;;;;5081309;28;20024;-69
2021/11/23 11:35:57;;;;;;;5.97;1.65;;;;;;;;;;5093758;28;20012;-69
2021/11/23 11:38:26;;;;;;;4.78;1.75;;;;;;;;;;5091669;28;20430;-69
2021/11/23 11:40:52;;;;;;;4.80;1.67;;;;;;;;;;5081675;28;20023;-69
2021/11/23 11:43:17;;;;;;;7.47;1.90;;;;;;;;;;5073735;28;20020;-69
2021/11/23 11:45:50;;;;;;;4.95;1.70;;;;;;;;;;5092646;28;20366;-69
2021/11/23 11:48:30;;;;;;;3.55;1.27;;;;;;;;;;5092950;28;20020;-69
2021/11/23 11:51:05;;;;;;;4.63;2.15;;;;;;;;;;5093613;28;20020;-70
2021/11/23 11:53:51;;;;;;;5.10;2.20;;;;;;;;;;5082927;28;20020;-70
2021/11/23 11:56:34;;;;;;;5.68;2.20;;;;;;;;;;5077731;28;20056;-70
2021/11/23 11:59:00;;;;;;;4.63;2.45;;;;;;;;;;5083819;28;20039;-70
2021/11/23 12:01:25;;;;;;;5.13;2.20;;;;;;;;;;5090456;28;20049;-69
2021/11/23 12:04:12;;;;;;;5.82;2.25;;;;;;;;;;5072835;28;20009;-69
2021/11/23 12:07:10;;;;;;;8.82;3.85;;;;;;;;;;5089721;28;20086;-70
2021/11/23 12:09:37;;;;;;;3.60;2.33;;;;;;;;;;5092228;28;20376;-69
2021/11/23 12:12:08;;;;;;;3.95;1.98;;;;;;;;;;5092781;28;20027;-70
2021/11/23 12:14:36;;;;;;;4.95;2.05;;;;;;;;;;5092314;28;20022;-70
2021/11/23 12:17:07;;;;;;;4.18;1.98;;;;;;;;;;5091028;28;20101;-70
2021/11/23 12:19:42;;;;;;;5.15;2.80;;;;;;;;;;5092502;28;20028;-70
2021/11/23 12:22:19;;;;;;;5.30;2.78;;;;;;;;;;5091254;28;20020;-70
2021/11/23 12:24:44;;;;;;;5.07;2.30;;;;;;;;;;5072841;28;20028;-70
2021/11/23 12:27:11;;;;;;;6.80;3.13;;;;;;;;;;5082197;28;20012;-70
2021/11/23 12:29:36;;;;;;;4.82;2.72;;;;;;;;;;5072317;28;20463;-70
2021/11/23 12:32:02;;;;;;;7.38;2.88;;;;;;;;;;5080923;28;20126;-70
2021/11/23 12:34:28;;;;;;;6.78;2.92;;;;;;;;;;5091154;28;20024;-70
2021/11/23 12:36:55;;;;;;;10.50;3.70;;;;;;;;;;5091881;28;20089;-70
2021/11/23 12:39:24;;;;;;;8.52;3.63;;;;;;;;;;5090985;28;20115;-70
2021/11/23 12:41:57;;;;;;;8.35;4.10;;;;;;;;;;5084310;28;20027;-70
2021/11/23 12:44:23;;;;;;;10.07;3.88;;;;;;;;;;5092473;28;20030;-70
2021/11/23 12:46:57;;;;;;;9.95;4.85;;;;;;;;;;5092122;28;20016;-70
2021/11/23 12:49:22;;;;;;;9.95;5.63;;;;;;;;;;5091929;28;20020;-69
2021/11/23 12:51:55;;;;;;;12.48;5.40;;;;;;;;;;5091488;28;20101;-70
2021/11/23 12:54:23;;;;;;;9.25;4.85;;;;;;;;;;5070839;28;20024;-69
2021/11/23 12:56:58;;;;;;;11.25;5.22;;;;;;;;;;5071851;28;20020;-70
2021/11/23 12:59:41;;;;;;;9.30;4.72;;;;;;;;;;5087783;28;20085;-70
2021/11/23 13:02:25;;;;;;;8.13;4.00;;;;;;;;;;5086833;28;20110;-71
2021/11/23 13:04:52;;;;;;;8.75;4.70;;;;;;;;;;5090826;28;20023;-70
2021/11/23 13:07:17;;;;;;;7.90;4.03;;;;;;;;;;5090732;28;20008;-70
2021/11/23 13:09:47;;;;;;;8.27;4.38;;;;;;;;;;5087695;28;20031;-71
2021/11/23 13:12:12;;;;;;;6.70;3.97;;;;;;;;;;5086607;28;20445;-70
2021/11/23 13:14:54;;;;;;;7.57;4.45;;;;;;;;;;5091575;28;20099;-71
2021/11/23 13:17:39;;;;;;;7.15;4.38;;;;;;;;;;5091975;28;20020;-71
2021/11/23 13:20:06;;;;;;;8.43;4.80;;;;;;;;;;5091598;28;20035;-70
2021/11/23 13:22:38;;;;;;;10.63;5.20;;;;;;;;;;5088878;28;20468;-71
2021/11/23 13:25:04;;;;;;;11.70;5.95;;;;;;;;;;5078978;28;20039;-70
2021/11/23 13:27:32;;;;;;;9.77;6.20;;;;;;;;;;5080401;28;20392;-71
2021/11/23 13:30:00;;;;;;;10.32;6.32;;;;;;;;;;5095745;28;20097;-70
2021/11/23 13:32:26;;;;;;;14.10;8.38;;;;;;;;;;5083826;28;20139;-71
2021/11/23 13:35:12;;;;;;;15.20;6.95;;;;;;;;;;5080204;28;20417;-71
2021/11/23 13:37:38;;;;;;;13.02;6.90;;;;;;;;;;5095097;28;20118;-70
2021/11/23 13:40:23;;;;;;;14.63;6.10;;;;;;;;;;5093635;28;20025;-70
2021/11/23 13:42:49;;;;;;;13.75;7.25;;;;;;;;;;5096259;28;20035;-70
2021/11/23 13:45:20;;;;;;;15.55;8.27;;;;;;;;;;5095850;28;20020;-70
2021/11/23 13:47:50;;;;;;;9.98;6.88;;;;;;;;;;5095420;28;20030;-70
2021/11/23 13:50:16;;;;;;;11.32;6.47;;;;;;;;;;5095655;28;20021;-70
2021/11/23 13:52:42;;;;;;;11.50;7.35;;;;;;;;;;5090265;28;20036;-70
2021/11/23 13:55:09;;;;;;;10.73;6.78;;;;;;;;;;5072373;28;21941;-71
2021/11/23 13:57:40;;;;;;;12.60;7.40;;;;;;;;;;5083906;28;20066;-70
2021/11/23 14:00:11;;;;;;;14.32;8.88;;;;;;;;;;5092776;28;20019;-70
2021/11/23 14:02:53;;;;;;;11.82;7.55;;;;;;;;;;5094332;28;20028;-70
2021/11/23 14:05:41;;;;;;;14.50;8.05;;;;;;;;;;5094078;28;20145;-71
2021/11/23 14:08:10;;;;;;;17.92;8.52;;;;;;;;;;5079160;28;20388;-70
2021/11/23 14:10:43;;;;;;;11.75;8.00;;;;;;;;;;5085410;28;20031;-71
2021/11/23 14:13:09;;;;;;;13.95;7.95;;;;;;;;;;5091602;28;20081;-70
2021/11/23 14:15:48;;;;;;;13.82;8.63;;;;;;;;;;5093448;28;20055;-70
2021/11/23 14:18:19;;;;;;;13.05;8.43;;;;;;;;;;5094913;28;20078;-71
2021/11/23 14:20:47;;;;;;;11.63;8.27;;;;;;;;;;5084354;28;20059;-71
2021/11/23 14:23:15;;;;;;;14.07;8.43;;;;;;;;;;5074673;28;20024;-71
2021/11/23 14:25:43;;;;;;;12.30;6.78;;;;;;;;;;5089744;28;20464;-70
2021/11/23 14:28:09;;;;;;;9.90;6.28;;;;;;;;;;5088167;28;20020;-70
2021/11/23 14:30:34;;;;;;;17.77;8.52;;;;;;;;;;5092998;28;20028;-70
2021/11/23 14:33:00;;;;;;;12.95;7.93;;;;;;;;;;5092899;28;20527;-71
2021/11/23 14:35:26;;;;;;;13.70;7.88;;;;;;;;;;5094661;28;20023;-71
2021/11/23 14:37:52;;;;;;;12.07;7.20;;;;;;;;;;5090425;28;20023;-70
2021/11/23 14:40:17;;;;;;;11.38;6.90;;;;;;;;;;5063103;28;20028;-71